createdAt,value
2018-01-29T00:00:50.374Z,9.07
2018-01-29T00:03:17.957Z,9.07
2018-01-29T00:05:45.456Z,10.07
2018-01-29T00:08:12.996Z,8.87
2018-01-29T00:10:40.558Z,8.93
2018-01-29T00:13:08.094Z,8.53
2018-01-29T00:15:35.612Z,8.33
2018-01-29T00:18:03.096Z,7.70
2018-01-29T00:20:30.589Z,7.80
2018-01-29T00:22:58.106Z,7.93
2018-01-29T00:25:26.071Z,7.60
2018-01-29T00:27:53.573Z,8.00
2018-01-29T00:30:21.088Z,7.33
2018-01-29T00:32:48.589Z,6.93
2018-01-29T00:35:16.146Z,7.40
2018-01-29T00:37:43.896Z,6.43
2018-01-29T00:40:11.398Z,7.23
2018-01-29T00:42:38.911Z,7.20
2018-01-29T00:45:06.472Z,6.97
2018-01-29T00:47:34.010Z,7.30
2018-01-29T00:50:01.514Z,7.17
2018-01-29T00:52:29.066Z,7.27
2018-01-29T00:54:56.622Z,7.33
2018-01-29T00:57:24.113Z,7.20
2018-01-29T00:59:51.601Z,7.57
2018-01-29T01:02:19.119Z,8.40
2018-01-29T01:04:46.632Z,7.90
2018-01-29T01:07:14.132Z,8.23
2018-01-29T01:09:41.679Z,8.30
2018-01-29T01:12:09.164Z,8.93
2018-01-29T01:14:36.685Z,8.87
2018-01-29T01:17:04.203Z,9.07
2018-01-29T01:19:31.787Z,8.87
2018-01-29T01:21:59.329Z,9.30
2018-01-29T01:24:26.848Z,9.03
2018-01-29T01:26:54.344Z,9.73
2018-01-29T01:29:21.855Z,9.17
2018-01-29T01:31:49.378Z,9.00
2018-01-29T01:34:16.876Z,9.90
2018-01-29T01:36:44.416Z,9.90
2018-01-29T01:39:11.956Z,9.83
2018-01-29T01:41:39.466Z,9.70
2018-01-29T01:44:06.966Z,10.03
2018-01-29T01:46:34.471Z,9.47
2018-01-29T01:49:01.974Z,10.50
2018-01-29T01:51:29.527Z,9.43
2018-01-29T01:53:57.060Z,9.20
2018-01-29T01:56:24.567Z,9.77
2018-01-29T01:58:52.104Z,8.90
2018-01-29T02:01:19.625Z,9.27
2018-01-29T02:03:47.188Z,8.47
2018-01-29T02:06:14.690Z,8.20
2018-01-29T02:08:42.206Z,7.97
2018-01-29T02:11:09.731Z,8.30
2018-01-29T02:13:37.218Z,7.80
2018-01-29T02:16:04.770Z,7.83
2018-01-29T02:18:32.368Z,7.73
2018-01-29T02:20:59.987Z,8.43
2018-01-29T02:23:27.492Z,8.57
2018-01-29T02:25:55.012Z,7.50
2018-01-29T02:28:22.549Z,8.80
2018-01-29T02:30:50.038Z,8.17
2018-01-29T02:33:17.566Z,8.40
2018-01-29T02:35:45.084Z,9.30
2018-01-29T02:38:12.594Z,9.20
2018-01-29T02:40:40.099Z,8.13
2018-01-29T02:43:07.636Z,8.90
2018-01-29T02:45:35.118Z,8.57
2018-01-29T02:48:02.622Z,8.20
2018-01-29T02:50:30.145Z,8.83
2018-01-29T02:52:57.641Z,8.63
2018-01-29T02:55:28.942Z,9.13
2018-01-29T02:57:56.468Z,8.60
2018-01-29T03:00:24.002Z,8.30
2018-01-29T03:02:51.561Z,8.70
2018-01-29T03:05:19.053Z,8.53
2018-01-29T03:07:46.540Z,9.47
2018-01-29T03:10:14.042Z,9.03
2018-01-29T03:12:41.577Z,9.53
2018-01-29T03:15:09.087Z,9.33
2018-01-29T03:17:36.637Z,8.93
2018-01-29T03:20:04.146Z,8.53
2018-01-29T03:22:31.685Z,8.43
2018-01-29T03:24:59.187Z,8.90
2018-01-29T03:27:26.788Z,8.50
2018-01-29T03:29:54.293Z,8.67
2018-01-29T03:32:21.827Z,7.73
2018-01-29T03:34:49.438Z,8.13
2018-01-29T03:37:16.926Z,7.83
2018-01-29T03:39:44.413Z,7.63
2018-01-29T03:42:11.934Z,6.87
2018-01-29T03:44:39.491Z,6.27
2018-01-29T03:47:07.013Z,6.37
2018-01-29T03:49:34.507Z,5.73
2018-01-29T03:52:02.044Z,6.10
2018-01-29T03:54:29.552Z,5.43
2018-01-29T03:56:57.106Z,4.97
2018-01-29T03:59:24.658Z,5.60
2018-01-29T04:01:52.165Z,5.33
2018-01-29T04:04:19.690Z,5.97
2018-01-29T04:06:47.204Z,5.30
2018-01-29T04:09:14.693Z,4.47
2018-01-29T04:11:42.202Z,4.37
2018-01-29T04:14:09.753Z,4.37
2018-01-29T04:16:37.278Z,4.37
2018-01-29T04:19:04.875Z,3.87
2018-01-29T04:21:32.406Z,4.03
2018-01-29T04:23:59.870Z,3.53
2018-01-29T04:26:27.404Z,3.60
2018-01-29T04:28:54.918Z,3.30
2018-01-29T04:31:22.423Z,3.30
2018-01-29T04:33:49.933Z,2.83
2018-01-29T04:36:17.458Z,2.90
2018-01-29T04:38:44.933Z,2.60
2018-01-29T04:41:12.458Z,2.60
2018-01-29T04:43:39.952Z,2.43
2018-01-29T04:46:07.468Z,2.40
2018-01-29T04:48:34.995Z,2.47
2018-01-29T04:51:02.508Z,2.10
2018-01-29T04:53:30.180Z,2.10
2018-01-29T04:55:57.676Z,2.10
2018-01-29T04:58:25.166Z,2.03
2018-01-29T05:00:52.682Z,2.10
2018-01-29T05:03:20.196Z,2.13
2018-01-29T05:05:47.702Z,2.10
2018-01-29T05:08:15.242Z,2.00
2018-01-29T05:10:42.743Z,1.90
2018-01-29T05:13:10.223Z,2.17
2018-01-29T05:15:37.697Z,1.90
2018-01-29T05:18:05.202Z,2.00
2018-01-29T05:20:32.712Z,2.30
2018-01-29T05:23:00.282Z,2.23
2018-01-29T05:25:27.777Z,2.30
2018-01-29T05:27:55.299Z,2.03
2018-01-29T05:30:22.769Z,2.40
2018-01-29T05:32:50.257Z,2.37
2018-01-29T05:38:27.297Z,1.90
2018-01-29T05:40:54.812Z,2.33
2018-01-29T05:43:22.316Z,2.57
2018-01-29T05:45:49.810Z,2.73
2018-01-29T05:48:17.344Z,2.40
2018-01-29T05:50:44.834Z,2.50
2018-01-29T05:53:12.349Z,3.07
2018-01-29T05:55:39.893Z,3.07
2018-01-29T05:58:07.397Z,2.93
2018-01-29T06:00:34.940Z,4.37
2018-01-29T06:03:02.435Z,2.90
2018-01-29T06:05:29.991Z,3.03
2018-01-29T06:07:57.512Z,2.90
2018-01-29T06:10:25.040Z,3.00
2018-01-29T06:12:52.533Z,3.10
2018-01-29T06:15:20.069Z,3.47
2018-01-29T06:17:47.606Z,2.80
2018-01-29T06:20:15.135Z,3.00
2018-01-29T06:22:42.660Z,2.80
2018-01-29T06:25:10.207Z,3.53
2018-01-29T06:27:37.725Z,3.17
2018-01-29T06:30:05.258Z,3.80
2018-01-29T06:32:32.755Z,3.80
2018-01-29T06:35:00.277Z,4.00
2018-01-29T06:37:27.836Z,4.50
2018-01-29T06:39:55.324Z,4.70
2018-01-29T06:42:22.826Z,5.00
2018-01-29T06:44:50.318Z,5.60
2018-01-29T06:47:17.833Z,4.80
2018-01-29T06:49:45.350Z,5.83
2018-01-29T06:52:12.954Z,5.70
2018-01-29T06:54:40.530Z,6.33
2018-01-29T06:57:08.307Z,6.20
2018-01-29T06:59:35.824Z,7.20
2018-01-29T07:02:03.316Z,6.60
2018-01-29T07:04:30.840Z,7.33
2018-01-29T07:06:58.322Z,7.67
2018-01-29T07:09:25.858Z,7.67
2018-01-29T07:11:53.392Z,8.13
2018-01-29T07:14:20.942Z,8.17
2018-01-29T07:16:48.449Z,8.50
2018-01-29T07:19:15.966Z,8.37
2018-01-29T07:21:43.462Z,7.90
2018-01-29T07:24:11.025Z,8.40
2018-01-29T07:26:38.541Z,8.87
2018-01-29T07:29:06.065Z,7.63
2018-01-29T07:31:33.648Z,8.47
2018-01-29T07:34:01.198Z,8.60
2018-01-29T07:36:28.830Z,8.73
2018-01-29T07:38:56.332Z,8.70
2018-01-29T07:41:23.847Z,8.60
2018-01-29T07:43:51.339Z,8.70
2018-01-29T07:46:18.865Z,8.43
2018-01-29T07:48:46.423Z,8.37
2018-01-29T07:51:13.989Z,8.00
2018-01-29T07:53:41.539Z,7.87
2018-01-29T07:56:09.048Z,8.10
2018-01-29T07:58:36.612Z,7.83
2018-01-29T08:01:04.124Z,8.23
2018-01-29T08:03:32.432Z,7.07
2018-01-29T08:05:59.992Z,7.33
2018-01-29T08:08:27.485Z,7.03
2018-01-29T08:10:55.070Z,7.30
2018-01-29T08:13:22.573Z,7.47
2018-01-29T08:15:50.102Z,7.90
2018-01-29T08:18:17.606Z,7.67
2018-01-29T08:20:45.251Z,7.20
2018-01-29T08:23:12.778Z,8.03
2018-01-29T08:25:40.317Z,6.90
2018-01-29T08:28:07.847Z,7.53
2018-01-29T08:30:35.391Z,7.13
2018-01-29T08:33:02.882Z,7.30
2018-01-29T08:35:30.411Z,6.60
2018-01-29T08:37:57.893Z,7.10
2018-01-29T08:40:25.756Z,7.33
2018-01-29T08:42:53.287Z,6.60
2018-01-29T08:45:20.778Z,7.03
2018-01-29T08:47:48.305Z,6.97
2018-01-29T08:50:15.803Z,7.03
2018-01-29T08:52:43.321Z,7.07
2018-01-29T08:55:10.811Z,7.40
2018-01-29T08:57:38.328Z,6.97
2018-01-29T09:00:05.840Z,6.70
2018-01-29T09:02:33.360Z,6.67
2018-01-29T09:05:00.856Z,6.87
2018-01-29T09:07:28.343Z,7.43
2018-01-29T09:09:55.914Z,6.93
2018-01-29T09:12:23.402Z,7.80
2018-01-29T09:14:50.892Z,7.57
2018-01-29T09:17:18.414Z,7.60
2018-01-29T09:19:45.979Z,7.43
2018-01-29T09:22:13.539Z,7.93
2018-01-29T09:24:41.050Z,8.07
2018-01-29T09:27:11.556Z,7.80
2018-01-29T09:29:39.065Z,7.87
2018-01-29T09:32:06.559Z,7.53
2018-01-29T09:34:34.116Z,7.87
2018-01-29T09:37:01.660Z,7.77
2018-01-29T09:39:29.158Z,7.80
2018-01-29T09:41:56.675Z,7.80
2018-01-29T09:44:24.181Z,7.83
2018-01-29T09:46:51.799Z,7.77
2018-01-29T09:49:19.329Z,7.30
2018-01-29T09:51:47.530Z,6.90
2018-01-29T09:54:15.168Z,7.13
2018-01-29T09:56:42.691Z,9.60
2018-01-29T09:59:10.226Z,8.10
2018-01-29T10:01:37.721Z,7.60
2018-01-29T10:04:05.249Z,8.80
2018-01-29T10:06:32.802Z,8.40
2018-01-29T10:09:00.327Z,8.47
2018-01-29T10:11:27.825Z,10.17
2018-01-29T10:13:55.302Z,9.30
2018-01-29T10:16:22.840Z,8.80
2018-01-29T10:18:50.332Z,8.70
2018-01-29T10:21:17.843Z,7.90
2018-01-29T10:23:45.331Z,8.87
2018-01-29T10:26:12.864Z,7.53
2018-01-29T10:28:40.352Z,8.13
2018-01-29T10:31:07.901Z,7.20
2018-01-29T10:33:35.768Z,7.87
2018-01-29T10:36:03.283Z,7.83
2018-01-29T10:38:30.782Z,7.73
2018-01-29T10:40:58.274Z,7.27
2018-01-29T10:43:25.792Z,7.03
2018-01-29T10:45:53.339Z,7.10
2018-01-29T10:48:20.858Z,7.87
2018-01-29T10:50:48.400Z,6.80
2018-01-29T10:53:15.891Z,8.53
2018-01-29T10:55:43.392Z,8.07
2018-01-29T10:58:10.888Z,7.73
2018-01-29T11:00:44.112Z,7.80
2018-01-29T11:03:11.603Z,8.53
2018-01-29T11:05:39.198Z,8.53
2018-01-29T11:08:06.696Z,8.30
2018-01-29T11:10:34.199Z,8.10
2018-01-29T11:13:01.723Z,9.50
2018-01-29T11:15:29.227Z,9.30
2018-01-29T11:17:56.743Z,9.83
2018-01-29T11:20:24.229Z,9.87
2018-01-29T11:22:51.780Z,8.87
2018-01-29T11:25:19.287Z,8.87
2018-01-29T11:27:46.820Z,8.53
2018-01-29T11:30:14.349Z,9.17
2018-01-29T11:32:41.880Z,8.87
2018-01-29T11:35:09.442Z,7.27
2018-01-29T11:37:36.940Z,8.37
2018-01-29T11:40:04.423Z,7.67
2018-01-29T11:42:31.905Z,7.23
2018-01-29T11:44:59.428Z,7.73
2018-01-29T11:47:26.947Z,7.73
2018-01-29T11:49:54.496Z,7.37
2018-01-29T11:52:22.013Z,7.40
2018-01-29T11:54:49.718Z,6.20
2018-01-29T11:57:17.241Z,5.63
2018-01-29T11:59:44.731Z,6.43
2018-01-29T12:02:12.249Z,6.07
2018-01-29T12:04:39.752Z,6.97
2018-01-29T12:07:07.280Z,6.97
2018-01-29T12:09:34.788Z,6.27
2018-01-29T12:12:02.293Z,6.50
2018-01-29T12:14:29.796Z,6.53
2018-01-29T12:16:57.303Z,6.43
2018-01-29T12:19:24.820Z,6.27
2018-01-29T12:21:52.732Z,5.60
2018-01-29T12:24:20.305Z,5.63
2018-01-29T12:26:47.804Z,6.90
2018-01-29T12:29:15.320Z,6.07
2018-01-29T12:31:42.808Z,5.77
2018-01-29T12:34:10.318Z,5.57
2018-01-29T12:36:37.817Z,6.30
2018-01-29T12:39:05.320Z,6.07
2018-01-29T12:41:32.823Z,6.43
2018-01-29T12:44:00.368Z,6.17
2018-01-29T12:46:27.847Z,6.40
2018-01-29T12:48:55.410Z,5.93
2018-01-29T12:51:22.902Z,6.13
2018-01-29T12:53:50.476Z,6.60
2018-01-29T12:56:18.007Z,5.63
2018-01-29T12:58:45.640Z,5.67
2018-01-29T13:01:13.166Z,6.10
2018-01-29T13:03:40.688Z,6.60
2018-01-29T13:06:08.177Z,5.80
2018-01-29T13:08:35.667Z,6.33
2018-01-29T13:11:03.421Z,5.63
2018-01-29T13:13:30.953Z,6.20
2018-01-29T13:15:58.430Z,5.50
2018-01-29T13:18:25.931Z,5.77
2018-01-29T13:20:53.875Z,6.07
2018-01-29T13:23:21.386Z,5.90
2018-01-29T13:25:48.873Z,5.43
2018-01-29T13:28:16.399Z,5.47
2018-01-29T13:30:43.887Z,5.27
2018-01-29T13:33:11.428Z,5.23
2018-01-29T13:35:38.924Z,5.50
2018-01-29T13:38:06.416Z,5.97
2018-01-29T13:40:33.927Z,5.00
2018-01-29T13:43:01.493Z,4.90
2018-01-29T13:45:29.000Z,5.00
2018-01-29T13:47:56.553Z,5.50
2018-01-29T13:50:24.077Z,5.73
2018-01-29T13:52:51.596Z,5.43
2018-01-29T13:55:19.170Z,5.90
2018-01-29T13:57:46.665Z,5.83
2018-01-29T14:00:14.166Z,5.30
2018-01-29T14:02:41.647Z,5.90
2018-01-29T14:05:09.167Z,5.57
2018-01-29T14:07:36.740Z,6.17
2018-01-29T14:10:04.317Z,6.50
2018-01-29T14:12:32.231Z,6.10
2018-01-29T14:14:59.730Z,5.73
2018-01-29T14:17:27.230Z,6.20
2018-01-29T14:19:54.753Z,6.10
2018-01-29T14:22:22.268Z,6.23
2018-01-29T14:24:49.755Z,6.30
2018-01-29T14:27:17.263Z,6.23
2018-01-29T14:29:44.791Z,5.90
2018-01-29T14:32:12.338Z,5.63
2018-01-29T14:34:39.866Z,5.63
2018-01-29T14:37:07.370Z,6.73
2018-01-29T14:39:34.880Z,6.83
2018-01-29T14:42:02.409Z,7.07
2018-01-29T14:44:29.901Z,6.67
2018-01-29T14:46:57.444Z,7.63
2018-01-29T14:49:24.948Z,7.33
2018-01-29T14:51:52.444Z,7.90
2018-01-29T14:54:19.965Z,6.83
2018-01-29T14:56:47.466Z,7.40
2018-01-29T14:59:15.030Z,6.63
2018-01-29T15:01:42.517Z,6.37
2018-01-29T15:04:10.047Z,5.93
2018-01-29T15:06:37.589Z,6.20
2018-01-29T15:09:05.081Z,6.37
2018-01-29T15:11:32.591Z,5.77
2018-01-29T15:14:00.146Z,5.60
2018-01-29T15:16:27.673Z,6.10
2018-01-29T15:18:55.192Z,5.97
2018-01-29T15:21:22.687Z,6.10
2018-01-29T15:23:50.264Z,6.03
2018-01-29T15:26:17.763Z,5.90
2018-01-29T15:28:45.285Z,5.97
2018-01-29T15:31:12.793Z,5.30
2018-01-29T15:33:40.306Z,5.80
2018-01-29T15:36:07.840Z,5.63
2018-01-29T15:38:35.396Z,5.50
2018-01-29T15:41:02.901Z,4.83
2018-01-29T15:43:30.375Z,5.33
2018-01-29T15:45:57.900Z,4.43
2018-01-29T15:48:25.389Z,5.17
2018-01-29T15:50:52.914Z,4.93
2018-01-29T15:53:20.429Z,4.97
2018-01-29T15:55:47.950Z,4.37
2018-01-29T15:58:15.437Z,5.03
2018-01-29T16:00:42.932Z,4.17
2018-01-29T16:03:10.440Z,4.07
2018-01-29T16:05:37.947Z,4.50
2018-01-29T16:08:05.474Z,4.47
2018-01-29T16:10:32.964Z,4.33
2018-01-29T16:13:00.481Z,5.30
2018-01-29T16:15:27.974Z,4.67
2018-01-29T16:17:55.484Z,5.30
2018-01-29T16:20:23.057Z,5.07
2018-01-29T16:22:50.567Z,4.40
2018-01-29T16:25:18.145Z,4.67
2018-01-29T16:27:45.644Z,4.50
2018-01-29T16:30:13.133Z,4.63
2018-01-29T16:32:40.629Z,4.50
2018-01-29T16:35:08.137Z,4.63
2018-01-29T16:37:35.644Z,5.03
2018-01-29T16:40:03.159Z,4.30
2018-01-29T16:42:30.685Z,4.00
2018-01-29T16:44:58.218Z,3.93
2018-01-29T16:47:25.720Z,4.07
2018-01-29T16:49:53.189Z,3.60
2018-01-29T16:52:20.735Z,4.33
2018-01-29T16:54:48.219Z,4.13
2018-01-29T16:57:15.692Z,4.40
2018-01-29T16:59:43.177Z,4.73
2018-01-29T17:02:10.655Z,5.50
2018-01-29T17:04:38.537Z,5.53
2018-01-29T17:07:06.022Z,6.10
2018-01-29T17:09:33.485Z,5.93
2018-01-29T17:12:01.005Z,6.40
2018-01-29T17:14:28.508Z,6.90
2018-01-29T17:16:56.014Z,7.33
2018-01-29T17:19:23.505Z,8.07
2018-01-29T17:21:50.995Z,7.97
2018-01-29T17:24:18.514Z,8.80
2018-01-29T17:26:46.013Z,9.27
2018-01-29T17:29:13.540Z,8.77
2018-01-29T17:31:41.039Z,9.43
2018-01-29T17:34:08.543Z,10.33
2018-01-29T17:36:36.056Z,9.90
2018-01-29T17:39:03.557Z,8.63
2018-01-29T17:41:31.076Z,9.47
2018-01-29T17:43:58.593Z,9.30
2018-01-29T17:46:26.099Z,8.53
2018-01-29T17:48:53.586Z,8.80
2018-01-29T17:51:21.121Z,9.10
2018-01-29T17:53:49.431Z,8.60
2018-01-29T17:56:16.947Z,8.93
2018-01-29T17:58:44.450Z,8.07
2018-01-29T18:01:11.940Z,8.67
2018-01-29T18:03:39.490Z,8.77
2018-01-29T18:06:06.993Z,9.20
2018-01-29T18:08:34.484Z,9.00
2018-01-29T18:11:02.367Z,8.20
2018-01-29T18:13:29.903Z,8.60
2018-01-29T18:15:57.410Z,8.43
2018-01-29T18:18:25.094Z,8.57
2018-01-29T18:20:52.608Z,8.50
2018-01-29T18:23:20.158Z,8.97
2018-01-29T18:25:47.896Z,8.53
2018-01-29T18:28:17.002Z,7.40
2018-01-29T18:30:44.662Z,8.67
2018-01-29T18:33:12.189Z,8.57
2018-01-29T18:35:39.787Z,7.70
2018-01-29T18:38:09.070Z,8.70
2018-01-29T18:40:36.573Z,8.23
2018-01-29T18:43:04.157Z,8.83
2018-01-29T18:45:32.151Z,8.50
2018-01-29T18:48:01.887Z,8.67
2018-01-29T18:50:29.440Z,7.90
2018-01-29T18:52:56.960Z,8.63
2018-01-29T18:55:24.464Z,9.33
2018-01-29T18:57:52.091Z,7.80
2018-01-29T19:00:21.244Z,7.73
2018-01-29T19:02:49.916Z,7.63
2018-01-29T19:05:17.398Z,7.70
2018-01-29T19:07:44.930Z,8.57
2018-01-29T19:10:14.655Z,8.70
2018-01-29T19:12:42.146Z,8.27
2018-01-29T19:15:09.663Z,8.13
2018-01-29T19:17:37.198Z,8.63
2018-01-29T19:20:04.689Z,8.97
2018-01-29T19:22:32.235Z,9.33
2018-01-29T19:24:59.728Z,7.90
2018-01-29T19:27:27.227Z,9.33
2018-01-29T19:29:54.745Z,8.67
2018-01-29T19:32:22.268Z,9.27
2018-01-29T19:34:49.777Z,6.23
2018-01-29T19:37:17.300Z,3.80
2018-01-29T19:39:44.773Z,3.13
2018-01-29T19:42:12.280Z,3.03
2018-01-29T19:44:39.792Z,2.47
2018-01-29T19:47:07.328Z,2.40
2018-01-29T19:49:34.811Z,2.27
2018-01-29T19:52:02.318Z,2.20
2018-01-29T19:54:29.815Z,2.00
2018-01-29T19:56:58.787Z,2.10
2018-01-29T19:59:26.292Z,1.60
2018-01-29T20:01:53.789Z,1.60
2018-01-29T20:04:22.215Z,1.40
2018-01-29T20:06:50.240Z,2.10
2018-01-29T20:09:17.852Z,2.10
2018-01-29T20:11:45.381Z,2.00
2018-01-29T20:14:12.911Z,2.10
2018-01-29T20:16:40.430Z,1.60
2018-01-29T20:19:07.928Z,1.80
2018-01-29T20:21:35.526Z,1.80
2018-01-29T20:24:03.120Z,1.50
2018-01-29T20:26:30.815Z,1.63
2018-01-29T20:28:58.343Z,1.67
2018-01-29T20:31:26.836Z,1.50
2018-01-29T20:33:54.725Z,1.70
2018-01-29T20:36:22.412Z,2.23
2018-01-29T20:38:49.975Z,2.10
2018-01-29T20:41:17.539Z,1.97
2018-01-29T20:43:45.044Z,2.00
2018-01-29T20:46:12.631Z,1.93
2018-01-29T20:48:40.189Z,2.10
2018-01-29T20:51:07.716Z,2.00
2018-01-29T20:53:35.280Z,1.90
2018-01-29T20:56:02.798Z,2.17
2018-01-29T20:58:30.344Z,2.23
2018-01-29T21:00:57.985Z,2.40
2018-01-29T21:03:25.511Z,2.73
2018-01-29T21:05:53.015Z,2.37
2018-01-29T21:08:20.632Z,2.40
2018-01-29T21:10:48.255Z,2.33
2018-01-29T21:13:16.267Z,2.67
2018-01-29T21:15:43.862Z,2.60
2018-01-29T21:18:11.555Z,2.67
2018-01-29T21:20:39.153Z,2.87
2018-01-29T21:23:06.780Z,3.37
2018-01-29T21:25:34.318Z,3.10
2018-01-29T21:28:01.810Z,3.80
2018-01-29T21:30:29.360Z,3.53
2018-01-29T21:32:56.860Z,3.53
2018-01-29T21:35:24.338Z,3.40
2018-01-29T21:37:51.841Z,4.10
2018-01-29T21:40:19.352Z,3.60
2018-01-29T21:42:46.829Z,3.60
2018-01-29T21:45:14.339Z,3.33
2018-01-29T21:47:41.837Z,3.67
2018-01-29T21:50:09.480Z,4.43
2018-01-29T21:52:36.972Z,3.53
2018-01-29T21:55:04.639Z,3.17
2018-01-29T21:57:32.124Z,3.10
2018-01-29T21:59:59.638Z,3.60
2018-01-29T22:02:27.172Z,3.70
2018-01-29T22:04:54.665Z,3.30
2018-01-29T22:07:22.183Z,3.50
2018-01-29T22:09:49.684Z,2.80
2018-01-29T22:12:17.182Z,2.67
2018-01-29T22:14:44.684Z,2.67
2018-01-29T22:17:12.154Z,2.30
2018-01-29T22:19:39.708Z,2.20
2018-01-29T22:22:07.212Z,2.30
2018-01-29T22:24:34.736Z,2.30
2018-01-29T22:27:02.293Z,2.43
2018-01-29T22:29:29.836Z,1.80
2018-01-29T22:31:57.361Z,2.13
2018-01-29T22:34:24.880Z,2.10
2018-01-29T22:36:52.395Z,1.97
2018-01-29T22:39:19.896Z,2.33
2018-01-29T22:41:47.408Z,2.30
2018-01-29T22:44:14.913Z,2.10
2018-01-29T22:46:42.407Z,2.47
2018-01-29T22:49:09.895Z,2.10
2018-01-29T22:51:37.383Z,2.10
2018-01-29T22:54:04.887Z,2.07
2018-01-29T22:56:32.349Z,2.03
2018-01-29T22:58:59.855Z,1.83
2018-01-29T23:01:27.364Z,2.17
2018-01-29T23:03:54.946Z,2.17
2018-01-29T23:06:22.459Z,1.70
2018-01-29T23:08:49.983Z,2.47
2018-01-29T23:11:17.479Z,2.10
2018-01-29T23:13:44.941Z,2.13
2018-01-29T23:16:12.473Z,2.50
2018-01-29T23:18:39.980Z,2.93
2018-01-29T23:21:07.502Z,2.27
2018-01-29T23:23:35.038Z,2.33
2018-01-29T23:26:02.527Z,2.60
2018-01-29T23:28:30.056Z,2.10
2018-01-29T23:30:57.550Z,3.17
2018-01-29T23:33:25.145Z,2.40
2018-01-29T23:35:52.676Z,2.83
2018-01-29T23:38:20.197Z,2.63
2018-01-29T23:40:47.706Z,3.23
2018-01-29T23:43:15.248Z,3.10
2018-01-29T23:45:42.770Z,2.47
2018-01-29T23:48:10.298Z,2.63
2018-01-29T23:50:37.826Z,2.87
2018-01-29T23:53:05.348Z,2.50
2018-01-29T23:55:32.855Z,2.43
2018-01-29T23:58:00.366Z,2.57
